createdAt,value
2019-02-03T00:01:32.495Z,100475.14
2019-02-03T00:04:01.036Z,100473.78
2019-02-03T00:06:29.576Z,100475.55
2019-02-03T00:08:58.451Z,100471.17
2019-02-03T00:11:26.937Z,100479.30
2019-02-03T00:13:55.424Z,100489.13
2019-02-03T00:16:23.917Z,100490.90
2019-02-03T00:18:52.388Z,100489.21
2019-02-03T00:21:20.857Z,100490.08
2019-02-03T00:23:49.623Z,100490.95
2019-02-03T00:26:19.296Z,100501.59
2019-02-03T00:28:47.807Z,100503.82
2019-02-03T00:31:16.308Z,100494.37
2019-02-03T00:33:44.771Z,100499.12
2019-02-03T00:36:13.246Z,100499.49
2019-02-03T00:38:41.831Z,100493.50
2019-02-03T00:41:10.330Z,100491.36
2019-02-03T00:43:38.803Z,100493.05
2019-02-03T00:46:07.292Z,100497.30
2019-02-03T00:48:35.769Z,100500.31
2019-02-03T00:51:04.775Z,100499.86
2019-02-03T00:53:33.273Z,100507.04
2019-02-03T00:56:01.810Z,100504.48
2019-02-03T00:58:30.269Z,100507.91
2019-02-03T01:00:58.771Z,100510.88
2019-02-03T01:03:27.316Z,100503.61
2019-02-03T01:05:55.855Z,100505.30
2019-02-03T01:08:24.358Z,100501.46
2019-02-03T01:10:52.908Z,100503.16
2019-02-03T01:13:21.371Z,100502.74
2019-02-03T01:15:49.883Z,100503.07
2019-02-03T01:18:18.348Z,100504.77
2019-02-03T01:20:46.995Z,100507.56
2019-02-03T01:23:15.491Z,100521.93
2019-02-03T01:25:43.974Z,100538.23
2019-02-03T01:28:12.855Z,100550.67
2019-02-03T01:30:41.349Z,100560.11
2019-02-03T01:33:09.812Z,100561.31
2019-02-03T01:35:38.456Z,100566.10
2019-02-03T01:38:07.008Z,100580.59
2019-02-03T01:40:35.479Z,100581.45
2019-02-03T01:43:03.949Z,100583.20
2019-02-03T01:45:32.460Z,100585.42
2019-02-03T01:48:00.918Z,100585.42
2019-02-03T01:50:29.387Z,100586.79
2019-02-03T01:52:57.907Z,100585.97
2019-02-03T01:55:27.104Z,100584.77
2019-02-03T01:57:55.654Z,100584.77
2019-02-03T02:00:26.769Z,100584.86
2019-02-03T02:02:55.692Z,100591.30
2019-02-03T02:05:24.237Z,100590.52
2019-02-03T02:07:52.742Z,100594.81
2019-02-03T02:10:26.397Z,100598.73
2019-02-03T02:12:54.948Z,100602.95
2019-02-03T02:15:23.520Z,100600.06
2019-02-03T02:17:52.426Z,100602.16
2019-02-03T02:20:23.481Z,100606.00
2019-02-03T02:22:52.045Z,100602.49
2019-02-03T02:25:20.572Z,100607.06
2019-02-03T02:27:49.118Z,100604.42
2019-02-03T02:30:22.065Z,100605.66
2019-02-03T02:32:50.615Z,100615.80
2019-02-03T02:35:19.130Z,100614.44
2019-02-03T02:37:47.720Z,100616.95
2019-02-03T02:40:21.242Z,100613.66
2019-02-03T02:42:49.695Z,100613.16
2019-02-03T02:45:18.342Z,100618.37
2019-02-03T02:47:47.008Z,100621.80
2019-02-03T02:50:18.650Z,100619.23
2019-02-03T02:52:47.160Z,100622.66
2019-02-03T02:55:15.700Z,100623.56
2019-02-03T02:57:44.234Z,100625.31
2019-02-03T03:00:17.389Z,100631.38
2019-02-03T03:02:46.376Z,100635.22
2019-02-03T03:05:15.171Z,100640.75
2019-02-03T03:07:43.745Z,100646.33
2019-02-03T03:10:14.851Z,100646.28
2019-02-03T03:12:43.398Z,100651.45
2019-02-03T03:15:14.525Z,100652.72
2019-02-03T03:17:42.979Z,100662.55
2019-02-03T03:20:14.098Z,100665.93
2019-02-03T03:22:42.676Z,100672.41
2019-02-03T03:25:14.147Z,100673.74
2019-02-03T03:27:42.597Z,100681.97
2019-02-03T03:30:16.764Z,100685.48
2019-02-03T03:32:45.519Z,100688.45
2019-02-03T03:35:14.061Z,100682.52
2019-02-03T03:37:43.455Z,100677.89
2019-02-03T03:40:18.488Z,100675.70
2019-02-03T03:42:47.007Z,100681.31
2019-02-03T03:45:15.779Z,100685.56
2019-02-03T03:47:44.252Z,100695.39
2019-02-03T03:50:14.344Z,100700.92
2019-02-03T03:52:42.849Z,100701.39
2019-02-03T03:55:11.487Z,100704.36
2019-02-03T03:57:39.901Z,100703.48
2019-02-03T04:00:19.905Z,100708.66
2019-02-03T04:02:48.736Z,100714.59
2019-02-03T04:05:17.286Z,100711.16
2019-02-03T04:07:45.836Z,100718.11
2019-02-03T04:10:19.224Z,100717.70
2019-02-03T04:12:47.682Z,100732.23
2019-02-03T04:15:17.917Z,100730.96
2019-02-03T04:17:46.399Z,100734.80
2019-02-03T04:20:20.214Z,100734.02
2019-02-03T04:22:48.709Z,100746.81
2019-02-03T04:25:17.177Z,100745.13
2019-02-03T04:27:45.699Z,100755.83
2019-02-03T04:30:17.584Z,100772.14
2019-02-03T04:32:46.034Z,100774.79
2019-02-03T04:35:15.554Z,100785.17
2019-02-03T04:37:44.038Z,100788.69
2019-02-03T04:40:14.951Z,100796.92
2019-02-03T04:42:43.425Z,100795.69
2019-02-03T04:45:14.149Z,100808.17
2019-02-03T04:47:42.599Z,100806.98
2019-02-03T04:50:13.757Z,100812.51
2019-02-03T04:52:42.282Z,100812.42
2019-02-03T04:55:13.492Z,100816.72
2019-02-03T04:57:41.973Z,100823.13
2019-02-03T05:00:22.176Z,100826.59
2019-02-03T05:02:50.627Z,100819.28
2019-02-03T05:05:19.095Z,100825.69
2019-02-03T05:07:47.672Z,100829.06
2019-02-03T05:10:16.467Z,100837.20
2019-02-03T05:12:44.929Z,100837.20
2019-02-03T05:15:15.971Z,100835.14
2019-02-03T05:17:44.431Z,100835.20
2019-02-03T05:20:18.017Z,100835.20
2019-02-03T05:22:47.168Z,100837.76
2019-02-03T05:25:15.699Z,100842.09
2019-02-03T05:27:44.155Z,100839.53
2019-02-03T05:30:21.575Z,100849.28
2019-02-03T05:32:50.029Z,100853.62
2019-02-03T05:35:18.959Z,100855.22
2019-02-03T05:37:47.584Z,100866.02
2019-02-03T05:40:16.773Z,100860.34
2019-02-03T05:42:45.302Z,100875.38
2019-02-03T05:45:18.773Z,100875.38
2019-02-03T05:47:50.117Z,100881.52
2019-02-03T05:50:19.564Z,100887.52
2019-02-03T05:52:48.083Z,100887.52
2019-02-03T05:55:18.427Z,100889.20
2019-02-03T05:57:46.882Z,100896.56
2019-02-03T06:00:30.785Z,100912.08
2019-02-03T06:02:59.249Z,100912.08
2019-02-03T06:05:27.695Z,100916.33
2019-02-03T06:07:56.251Z,100916.33
2019-02-03T06:10:24.840Z,100919.03
2019-02-03T06:12:53.758Z,100928.08
2019-02-03T06:15:22.389Z,100937.05
2019-02-03T06:17:50.840Z,100949.86
2019-02-03T06:20:20.906Z,100949.86
2019-02-03T06:22:49.501Z,100954.11
2019-02-03T06:25:18.127Z,100962.98
2019-02-03T06:27:46.583Z,100966.83
2019-02-03T06:30:27.460Z,100973.69
2019-02-03T06:32:55.910Z,100976.75
2019-02-03T06:35:24.375Z,100981.14
2019-02-03T06:37:52.962Z,100987.64
2019-02-03T06:40:21.932Z,100985.45
2019-02-03T06:42:50.396Z,100985.45
2019-02-03T06:45:35.771Z,100986.36
2019-02-03T06:48:04.225Z,100988.42
2019-02-03T06:50:32.692Z,100982.89
2019-02-03T06:53:01.223Z,100985.86
2019-02-03T06:55:29.696Z,100985.86
2019-02-03T06:57:58.154Z,100984.12
2019-02-03T07:00:26.660Z,100989.55
2019-02-03T07:02:55.128Z,100993.31
2019-02-03T07:05:23.588Z,101003.00
2019-02-03T07:07:52.088Z,101000.03
2019-02-03T07:10:20.548Z,101007.39
2019-02-03T07:12:48.997Z,101008.22
2019-02-03T07:15:17.556Z,101007.89
2019-02-03T07:17:46.014Z,101010.45
2019-02-03T07:20:16.126Z,101007.58
2019-02-03T07:22:44.671Z,101013.58
2019-02-03T07:25:13.272Z,101012.76
2019-02-03T07:27:41.903Z,101017.01
2019-02-03T07:30:19.068Z,101028.45
2019-02-03T07:32:47.559Z,101031.91
2019-02-03T07:35:16.138Z,101047.66
2019-02-03T07:37:44.644Z,101055.02
2019-02-03T07:40:21.881Z,101061.43
2019-02-03T07:42:50.748Z,101064.48
2019-02-03T07:45:19.219Z,101072.33
2019-02-03T07:47:47.700Z,101070.23
2019-02-03T07:50:17.194Z,101079.69
2019-02-03T07:52:45.655Z,101078.00
2019-02-03T07:55:14.957Z,101090.87
2019-02-03T07:57:43.469Z,101092.56
2019-02-03T08:00:16.541Z,101096.91
2019-02-03T08:02:44.995Z,101099.38
2019-02-03T08:05:13.581Z,101092.97
2019-02-03T08:07:42.147Z,101099.78
2019-02-03T08:10:24.625Z,101104.03
2019-02-03T08:12:44.030Z,101114.34
2019-02-03T08:15:17.452Z,101114.34
2019-02-03T08:17:45.907Z,101122.17
2019-02-03T08:20:26.473Z,101121.80
2019-02-03T08:22:55.019Z,101121.86
2019-02-03T08:25:23.541Z,101127.14
2019-02-03T08:27:52.113Z,101130.10
2019-02-03T08:30:23.739Z,101141.32
2019-02-03T08:32:52.184Z,101149.09
2019-02-03T08:35:20.699Z,101156.44
2019-02-03T08:37:49.174Z,101159.50
2019-02-03T08:40:22.509Z,101165.84
2019-02-03T08:42:51.092Z,101167.33
2019-02-03T08:45:24.771Z,101167.33
2019-02-03T08:47:53.397Z,101171.97
2019-02-03T08:50:23.148Z,101171.97
2019-02-03T08:52:51.635Z,101159.56
2019-02-03T08:55:20.128Z,101164.12
2019-02-03T08:57:48.619Z,101162.92
2019-02-03T09:00:25.627Z,101159.95
2019-02-03T09:02:54.145Z,101163.89
2019-02-03T09:05:22.615Z,101175.17
2019-02-03T09:07:51.234Z,101175.41
2019-02-03T09:10:24.042Z,101153.47
2019-02-03T09:12:52.497Z,101153.47
2019-02-03T09:15:28.254Z,101156.49
2019-02-03T09:17:56.949Z,101169.79
2019-02-03T09:20:28.005Z,101169.79
2019-02-03T09:22:56.532Z,101170.91
2019-02-03T09:25:25.080Z,101170.91
2019-02-03T09:27:53.617Z,101164.95
2019-02-03T09:30:33.734Z,101168.63
2019-02-03T09:33:02.189Z,101168.25
2019-02-03T09:35:30.633Z,101174.41
2019-02-03T09:37:59.190Z,101174.41
2019-02-03T09:40:30.258Z,101170.47
2019-02-03T09:42:58.805Z,101170.47
2019-02-03T09:45:27.848Z,101186.09
2019-02-03T09:47:56.937Z,101180.17
2019-02-03T09:50:31.706Z,101177.98
2019-02-03T09:53:01.652Z,101177.98
2019-02-03T09:55:32.056Z,101194.26
2019-02-03T09:58:01.208Z,101192.09
2019-02-03T10:00:35.233Z,101202.50
2019-02-03T10:03:04.835Z,101207.95
2019-02-03T10:05:33.342Z,101207.95
2019-02-03T10:08:01.822Z,101215.25
2019-02-03T10:10:34.994Z,101232.89
2019-02-03T10:13:03.656Z,101232.89
2019-02-03T10:15:32.205Z,101239.85
2019-02-03T10:18:00.658Z,101244.67
2019-02-03T10:20:30.190Z,101244.67
2019-02-03T10:22:58.662Z,101263.66
2019-02-03T10:25:28.865Z,101268.00
2019-02-03T10:27:57.363Z,101262.78
2019-02-03T10:30:26.540Z,101262.78
2019-02-03T10:32:55.436Z,101279.55
2019-02-03T10:35:26.179Z,101279.55
2019-02-03T10:37:54.867Z,101273.13
2019-02-03T10:40:31.843Z,101273.13
2019-02-03T10:43:01.055Z,101268.47
2019-02-03T10:45:31.131Z,101268.88
2019-02-03T10:47:59.619Z,101263.33
2019-02-03T10:50:37.479Z,101263.33
2019-02-03T10:53:08.431Z,101268.88
2019-02-03T10:55:36.893Z,101268.88
2019-02-03T10:58:05.990Z,101283.22
2019-02-03T11:00:37.171Z,101278.81
2019-02-03T11:03:05.957Z,101270.08
2019-02-03T11:05:40.094Z,101270.08
2019-02-03T11:08:10.225Z,101267.88
2019-02-03T11:10:38.672Z,101267.01
2019-02-03T11:13:07.141Z,101265.89
2019-02-03T11:15:35.622Z,101265.89
2019-02-03T11:18:04.144Z,101272.31
2019-02-03T11:20:33.839Z,101278.02
2019-02-03T11:23:02.442Z,101278.02
2019-02-03T11:25:32.233Z,101270.91
2019-02-03T11:28:00.756Z,101270.91
2019-02-03T11:30:30.697Z,101268.16
2019-02-03T11:33:05.831Z,101268.16
2019-02-03T11:35:31.803Z,101268.16
2019-02-03T11:38:00.381Z,101269.38
2019-02-03T11:40:34.346Z,101258.08
2019-02-03T11:43:02.931Z,101264.78
2019-02-03T11:45:39.310Z,101264.78
2019-02-03T11:48:10.996Z,101268.31
2019-02-03T11:50:41.703Z,101284.59
2019-02-03T11:53:15.183Z,101284.59
2019-02-03T11:55:43.656Z,101289.72
2019-02-03T11:58:12.568Z,101293.33
2019-02-03T12:00:41.271Z,101291.17
2019-02-03T12:03:10.054Z,101291.17
2019-02-03T12:05:38.882Z,101302.56
2019-02-03T12:08:08.617Z,101312.11
2019-02-03T12:10:37.154Z,101312.11
2019-02-03T12:13:06.648Z,101318.52
2019-02-03T12:15:35.752Z,101319.08
2019-02-03T12:18:04.887Z,101314.50
2019-02-03T12:20:33.326Z,101307.45
2019-02-03T12:23:01.829Z,101305.66
2019-02-03T12:25:41.635Z,101305.66
2019-02-03T12:28:10.263Z,101316.01
2019-02-03T12:30:38.780Z,101314.81
2019-02-03T12:33:07.895Z,101310.23
2019-02-03T12:35:36.954Z,101317.61
2019-02-03T12:38:06.248Z,101310.48
2019-02-03T12:40:39.146Z,101310.48
2019-02-03T12:43:07.706Z,101317.29
2019-02-03T12:45:36.401Z,101318.98
2019-02-03T12:48:06.395Z,101318.58
2019-02-03T12:50:34.875Z,101327.97
2019-02-03T12:53:03.338Z,101330.38
2019-02-03T12:55:32.549Z,101334.05
2019-02-03T12:58:01.029Z,101350.02
2019-02-03T13:00:35.195Z,101350.02
2019-02-03T13:03:04.278Z,101358.20
2019-02-03T13:05:32.780Z,101358.20
2019-02-03T13:08:01.714Z,101360.14
2019-02-03T13:10:40.266Z,101366.22
2019-02-03T13:13:09.461Z,101375.04
2019-02-03T13:15:46.806Z,101378.80
2019-02-03T13:18:15.273Z,101390.84
2019-02-03T13:20:43.895Z,101400.44
2019-02-03T13:23:12.544Z,101398.91
2019-02-03T13:25:41.188Z,101401.25
2019-02-03T13:28:09.651Z,101401.25
2019-02-03T13:30:40.930Z,101409.83
2019-02-03T13:33:10.527Z,101406.45
2019-02-03T13:35:38.977Z,101415.92
2019-02-03T13:38:07.679Z,101414.14
2019-02-03T13:40:36.137Z,101420.90
2019-02-03T13:43:04.944Z,101420.90
2019-02-03T13:45:33.440Z,101423.37
2019-02-03T13:48:01.956Z,101413.67
2019-02-03T13:50:30.586Z,101413.67
2019-02-03T13:52:59.164Z,101426.65
2019-02-03T13:55:28.097Z,101418.45
2019-02-03T13:57:57.238Z,101418.45
2019-02-03T14:00:34.491Z,101436.19
2019-02-03T14:03:02.949Z,101445.06
2019-02-03T14:05:31.432Z,101441.84
2019-02-03T14:07:59.913Z,101441.84
2019-02-03T14:10:33.787Z,101450.44
2019-02-03T14:13:02.485Z,101455.56
2019-02-03T14:15:31.046Z,101456.34
2019-02-03T14:17:59.564Z,101465.62
2019-02-03T14:20:30.531Z,101465.62
2019-02-03T14:22:59.351Z,101464.19
2019-02-03T14:25:28.252Z,101467.56
2019-02-03T14:27:56.732Z,101460.72
2019-02-03T14:30:40.519Z,101473.61
2019-02-03T14:33:05.050Z,101473.44
2019-02-03T14:35:34.195Z,101488.11
2019-02-03T14:38:03.393Z,101483.70
2019-02-03T14:40:31.861Z,101492.57
2019-02-03T14:43:02.211Z,101492.57
2019-02-03T14:45:30.679Z,101495.95
2019-02-03T14:47:59.148Z,101492.51
2019-02-03T14:50:27.776Z,101492.51
2019-02-03T14:53:02.587Z,101496.19
2019-02-03T14:55:33.939Z,101496.19
2019-02-03T14:58:02.405Z,101492.85
2019-02-03T15:00:33.975Z,101492.85
2019-02-03T15:03:04.088Z,101493.49
2019-02-03T15:05:32.549Z,101493.49
2019-02-03T15:08:01.115Z,101495.99
2019-02-03T15:10:30.367Z,101495.75
2019-02-03T15:12:59.175Z,101495.75
2019-02-03T15:15:29.393Z,101514.98
2019-02-03T15:17:58.226Z,101514.98
2019-02-03T15:20:28.330Z,101521.69
2019-02-03T15:22:56.887Z,101525.59
2019-02-03T15:25:25.409Z,101523.84
2019-02-03T15:27:54.055Z,101532.91
2019-02-03T15:30:37.680Z,101538.81
2019-02-03T15:33:06.213Z,101537.77
2019-02-03T15:35:34.668Z,101537.77
2019-02-03T15:38:03.163Z,101546.60
2019-02-03T15:40:31.708Z,101543.94
2019-02-03T15:43:00.535Z,101555.87
2019-02-03T15:45:29.103Z,101555.87
2019-02-03T15:47:57.568Z,101559.61
2019-02-03T15:50:27.756Z,101559.74
2019-02-03T15:52:56.380Z,101564.39
2019-02-03T15:55:27.083Z,101573.77
2019-02-03T15:57:55.612Z,101581.05
2019-02-03T16:00:30.094Z,101581.05
2019-02-03T16:02:59.679Z,101584.89
2019-02-03T16:05:28.145Z,101587.34
2019-02-03T16:07:56.701Z,101587.34
2019-02-03T16:10:28.133Z,101586.00
2019-02-03T16:12:56.581Z,101588.96
2019-02-03T16:15:25.132Z,101597.83
2019-02-03T16:17:53.718Z,101601.67
2019-02-03T16:20:30.155Z,101601.67
2019-02-03T16:23:00.330Z,101607.67
2019-02-03T16:25:29.138Z,101607.67
2019-02-03T16:27:57.698Z,101613.49
2019-02-03T16:30:29.355Z,101613.49
2019-02-03T16:32:58.173Z,101607.02
2019-02-03T16:35:26.663Z,101613.49
2019-02-03T16:37:55.190Z,101607.39
2019-02-03T16:40:25.989Z,101607.90
2019-02-03T16:42:54.490Z,101612.91
2019-02-03T16:45:23.079Z,101611.63
2019-02-03T16:47:52.085Z,101611.63
2019-02-03T16:50:29.403Z,101612.44
2019-02-03T16:52:59.100Z,101619.22
2019-02-03T16:55:27.721Z,101620.50
2019-02-03T16:57:56.192Z,101626.31
2019-02-03T17:00:27.721Z,101621.13
2019-02-03T17:02:56.172Z,101626.25
2019-02-03T17:05:30.499Z,101632.25
2019-02-03T17:08:00.729Z,101635.11
2019-02-03T17:10:29.382Z,101637.37
2019-02-03T17:12:57.887Z,101643.09
2019-02-03T17:15:35.018Z,101645.28
2019-02-03T17:18:03.631Z,101642.31
2019-02-03T17:20:32.330Z,101654.72
2019-02-03T17:23:00.784Z,101663.28
2019-02-03T17:25:35.236Z,101661.92
2019-02-03T17:28:03.771Z,101667.13
2019-02-03T17:30:35.416Z,101678.83
2019-02-03T17:33:05.538Z,101666.65
2019-02-03T17:35:34.355Z,101666.65
2019-02-03T17:38:02.821Z,101680.04
2019-02-03T17:40:31.585Z,101685.16
2019-02-03T17:43:00.068Z,101678.36
2019-02-03T17:45:28.712Z,101683.19
2019-02-03T17:47:57.482Z,101688.31
2019-02-03T17:50:28.421Z,101685.56
2019-02-03T17:52:56.882Z,101685.56
2019-02-03T17:55:25.465Z,101697.69
2019-02-03T17:57:53.940Z,101697.69
2019-02-03T18:00:44.022Z,101689.70
2019-02-03T18:03:12.481Z,101701.34
2019-02-03T18:05:41.007Z,101706.36
2019-02-03T18:08:10.831Z,101716.13
2019-02-03T18:10:39.370Z,101711.59
2019-02-03T18:13:08.385Z,101711.59
2019-02-03T18:15:37.142Z,101712.79
2019-02-03T18:18:07.429Z,101716.52
2019-02-03T18:20:36.033Z,101721.46
2019-02-03T18:23:05.551Z,101721.46
2019-02-03T18:25:34.009Z,101727.25
2019-02-03T18:28:02.621Z,101734.85
2019-02-03T18:30:32.853Z,101744.11
2019-02-03T18:33:01.639Z,101744.11
2019-02-03T18:35:30.119Z,101757.61
2019-02-03T18:38:04.541Z,101764.09
2019-02-03T18:40:32.995Z,101766.25
2019-02-03T18:43:02.086Z,101770.60
2019-02-03T18:45:30.906Z,101776.20
2019-02-03T18:47:59.443Z,101786.45
2019-02-03T18:50:27.911Z,101786.45
2019-02-03T18:52:56.405Z,101787.52
2019-02-03T18:55:33.607Z,101806.25
2019-02-03T18:58:02.130Z,101806.25
2019-02-03T19:00:33.126Z,101808.30
2019-02-03T19:03:01.663Z,101805.67
2019-02-03T19:05:32.876Z,101819.64
2019-02-03T19:08:01.400Z,101819.64
2019-02-03T19:10:32.672Z,101823.70
2019-02-03T19:13:00.302Z,101823.70
2019-02-03T19:15:31.394Z,101834.42
2019-02-03T19:18:00.229Z,101837.19
2019-02-03T19:20:37.739Z,101839.36
2019-02-03T19:23:07.627Z,101841.44
2019-02-03T19:25:36.181Z,101839.55
2019-02-03T19:28:05.013Z,101839.55
2019-02-03T19:30:33.843Z,101845.15
2019-02-03T19:33:02.295Z,101845.15
2019-02-03T19:35:32.206Z,101849.39
2019-02-03T19:38:00.662Z,101845.44
2019-02-03T19:40:33.320Z,101849.68
2019-02-03T19:43:01.814Z,101849.48
2019-02-03T19:45:31.616Z,101851.05
2019-02-03T19:48:00.372Z,101855.98
2019-02-03T19:50:30.925Z,101861.78
2019-02-03T19:52:59.447Z,101856.55
2019-02-03T19:55:28.051Z,101849.08
2019-02-03T19:57:56.516Z,101851.84
2019-02-03T20:00:30.599Z,101858.02
2019-02-03T20:02:59.127Z,101859.38
2019-02-03T20:05:27.687Z,101859.47
2019-02-03T20:07:56.146Z,101868.34
2019-02-03T20:10:29.496Z,101875.79
2019-02-03T20:12:58.364Z,101874.83
2019-02-03T20:15:26.885Z,101880.31
2019-02-03T20:17:57.947Z,101884.34
2019-02-03T20:20:31.023Z,101879.03
2019-02-03T20:22:59.475Z,101882.55
2019-02-03T20:25:28.261Z,101881.36
2019-02-03T20:27:56.733Z,101876.31
2019-02-03T20:30:38.164Z,101886.23
2019-02-03T20:32:57.057Z,101896.94
2019-02-03T20:35:27.982Z,101905.45
2019-02-03T20:37:56.434Z,101905.92
2019-02-03T20:40:33.758Z,101913.55
2019-02-03T20:43:02.212Z,101917.97
2019-02-03T20:45:31.335Z,101922.75
2019-02-03T20:47:59.986Z,101928.69
2019-02-03T20:50:28.494Z,101930.95
2019-02-03T20:52:57.382Z,101933.17
2019-02-03T20:55:25.948Z,101938.34
2019-02-03T20:57:54.463Z,101942.73
2019-02-03T21:00:28.625Z,101951.34
2019-02-03T21:02:57.113Z,101951.52
2019-02-03T21:05:25.723Z,101951.66
2019-02-03T21:07:54.239Z,101970.61
2019-02-03T21:10:24.081Z,101968.72
2019-02-03T21:12:52.529Z,101970.19
2019-02-03T21:15:33.128Z,101967.77
2019-02-03T21:17:56.663Z,101980.81
2019-02-03T21:20:34.251Z,101975.76
2019-02-03T21:23:02.761Z,101984.61
2019-02-03T21:25:31.838Z,101986.03
2019-02-03T21:28:00.291Z,101991.44
2019-02-03T21:30:34.329Z,101994.13
2019-02-03T21:33:03.127Z,101999.02
2019-02-03T21:35:31.574Z,102003.52
2019-02-03T21:38:00.122Z,102013.37
2019-02-03T21:40:30.310Z,102010.60
2019-02-03T21:42:58.932Z,102019.58
2019-02-03T21:45:27.570Z,102027.38
2019-02-03T21:47:56.020Z,102028.33
2019-02-03T21:50:29.848Z,102028.86
2019-02-03T21:52:58.441Z,102036.56
2019-02-03T21:55:27.056Z,102040.91
2019-02-03T21:57:55.880Z,102039.67
2019-02-03T22:00:32.076Z,102047.49
2019-02-03T22:03:00.672Z,102051.45
2019-02-03T22:05:29.962Z,102062.84
2019-02-03T22:07:58.542Z,102068.95
2019-02-03T22:10:35.214Z,102075.98
2019-02-03T22:13:04.142Z,102073.98
2019-02-03T22:15:32.682Z,102081.77
2019-02-03T22:18:01.197Z,102080.64
2019-02-03T22:20:29.757Z,102083.72
2019-02-03T22:22:58.204Z,102085.02
2019-02-03T22:25:26.658Z,102092.44
2019-02-03T22:27:55.215Z,102093.34
2019-02-03T22:30:26.843Z,102093.11
2019-02-03T22:32:55.459Z,102101.27
2019-02-03T22:35:24.033Z,102103.09
2019-02-03T22:37:52.642Z,102105.75
2019-02-03T22:40:21.697Z,102108.95
2019-02-03T22:42:50.204Z,102108.33
2019-02-03T22:45:22.901Z,102109.85
2019-02-03T22:47:51.442Z,102115.23
2019-02-03T22:50:27.896Z,102117.27
2019-02-03T22:52:57.039Z,102124.02
2019-02-03T22:55:25.506Z,102125.94
2019-02-03T22:57:54.086Z,102127.08
2019-02-03T23:00:27.449Z,102130.27
2019-02-03T23:02:55.989Z,102130.66
2019-02-03T23:05:24.601Z,102127.62
2019-02-03T23:07:53.059Z,102132.19
2019-02-03T23:10:21.523Z,102134.89
2019-02-03T23:12:50.174Z,102140.62
2019-02-03T23:15:19.474Z,102135.00
2019-02-03T23:17:47.941Z,102142.94
2019-02-03T23:20:16.511Z,102141.38
2019-02-03T23:22:44.979Z,102145.59
2019-02-03T23:25:13.520Z,102139.76
2019-02-03T23:27:42.021Z,102141.03
2019-02-03T23:30:13.875Z,102143.44
2019-02-03T23:32:42.563Z,102144.97
2019-02-03T23:35:11.106Z,102147.77
2019-02-03T23:37:39.641Z,102149.32
2019-02-03T23:40:13.206Z,102150.45
2019-02-03T23:42:41.790Z,102151.23
2019-02-03T23:45:12.840Z,102157.46
2019-02-03T23:47:41.375Z,102152.23
2019-02-03T23:50:20.711Z,102149.19
2019-02-03T23:52:49.249Z,102146.11
2019-02-03T23:55:17.862Z,102155.80
2019-02-03T23:57:46.445Z,102161.15
